Time;durP1;ratioP1;P1;durP2;ratioP2;P2;SDS_P1;SDS_P2;PMS_P1;PMS_P2;Temp;Humidity;BMP_temperature;BMP_pressure;BME280_temperature;BME280_humidity;BME280_pressure;Samples;Min_cycle;Max_cycle;Signal;HPM_P1;HPM_P2
2023/03/10 00:01:15;;;;;;;4.47;1.25;;;10.80;98.40;;;;;;4984211;28;20057;-77
2023/03/10 00:03:41;;;;;;;2.63;1.00;;;10.80;99.00;;;;;;4984355;28;20053;-77
2023/03/10 00:06:09;;;;;;;3.75;0.85;;;10.70;99.20;;;;;;4986979;28;20456;-76
2023/03/10 00:08:35;;;;;;;3.55;1.20;;;10.70;98.90;;;;;;4987246;28;20050;-76
2023/03/10 00:11:00;;;;;;;3.03;1.13;;;10.70;98.80;;;;;;4990019;28;20030;-76
2023/03/10 00:13:26;;;;;;;4.15;1.17;;;10.70;99.70;;;;;;4992056;28;20434;-76
2023/03/10 00:15:52;;;;;;;5.05;1.05;;;10.60;99.40;;;;;;4988976;28;20030;-76
2023/03/10 00:18:18;;;;;;;2.72;0.93;;;10.60;99.80;;;;;;4987192;28;20085;-76
2023/03/10 00:20:44;;;;;;;4.43;1.15;;;10.50;99.40;;;;;;4982164;28;20034;-77
2023/03/10 00:23:09;;;;;;;5.13;1.50;;;10.50;99.30;;;;;;4986028;28;20022;-77
2023/03/10 00:25:35;;;;;;;3.08;1.17;;;10.50;99.60;;;;;;4993087;28;20027;-77
2023/03/10 00:28:00;;;;;;;5.32;1.40;;;10.50;99.60;;;;;;4993968;28;20034;-77
2023/03/10 00:30:28;;;;;;;4.85;1.20;;;10.40;99.60;;;;;;4991796;28;20046;-76
2023/03/10 00:32:53;;;;;;;3.42;1.00;;;10.40;99.30;;;;;;4990947;28;20491;-76
2023/03/10 00:35:19;;;;;;;4.65;1.38;;;10.30;99.60;;;;;;4993656;28;20049;-76
2023/03/10 00:37:45;;;;;;;5.53;1.48;;;10.30;99.20;;;;;;4988000;28;20026;-76
2023/03/10 00:40:13;;;;;;;3.17;0.93;;;10.20;99.50;;;;;;4991558;28;20076;-77
2023/03/10 00:42:39;;;;;;;2.25;0.98;;;10.20;99.50;;;;;;4991359;28;20519;-77
2023/03/10 00:45:05;;;;;;;3.67;0.90;;;10.20;99.30;;;;;;4990529;28;20487;-77
2023/03/10 00:47:31;;;;;;;3.15;0.93;;;10.10;99.30;;;;;;4986290;28;20031;-77
2023/03/10 00:49:56;;;;;;;4.30;1.25;;;10.10;99.50;;;;;;4991231;28;20487;-77
2023/03/10 00:52:22;;;;;;;2.83;0.98;;;10.10;99.40;;;;;;4987774;28;20038;-77
2023/03/10 00:54:48;;;;;;;3.45;1.30;;;10.00;99.40;;;;;;4988812;28;20149;-77
2023/03/10 00:57:14;;;;;;;3.38;1.10;;;10.00;99.50;;;;;;4987416;28;20025;-77
2023/03/10 00:59:39;;;;;;;3.85;1.27;;;10.00;99.60;;;;;;4983898;28;20403;-77
2023/03/10 01:02:05;;;;;;;2.50;0.90;;;10.00;99.90;;;;;;4983718;28;20495;-77
2023/03/10 01:04:30;;;;;;;2.83;1.23;;;10.00;99.90;;;;;;4992299;28;20121;-77
2023/03/10 01:06:56;;;;;;;1.92;0.75;;;10.10;99.90;;;;;;4989300;28;20399;-77
2023/03/10 01:09:22;;;;;;;4.57;0.85;;;10.00;99.90;;;;;;4983362;28;20041;-77
2023/03/10 01:11:48;;;;;;;4.88;1.10;;;10.00;99.90;;;;;;4990962;28;20018;-77
2023/03/10 01:14:15;;;;;;;3.00;0.82;;;10.00;99.90;;;;;;4987678;28;20030;-77
2023/03/10 01:16:40;;;;;;;5.03;1.02;;;10.00;99.90;;;;;;4985950;28;20170;-76
2023/03/10 01:19:06;;;;;;;3.97;1.15;;;10.00;99.90;;;;;;4987184;28;20466;-76
2023/03/10 01:21:35;;;;;;;2.75;1.00;;;10.10;99.90;;;;;;4985598;28;20041;-77
2023/03/10 01:24:01;;;;;;;3.92;1.10;;;10.10;99.90;;;;;;4987734;28;20097;-76
2023/03/10 01:26:28;;;;;;;3.67;1.02;;;10.20;99.90;;;;;;4987376;28;20482;-76
2023/03/10 01:28:54;;;;;;;2.03;0.68;;;10.20;99.90;;;;;;4989355;28;20054;-76
2023/03/10 01:31:19;;;;;;;6.03;1.00;;;10.30;99.90;;;;;;4992784;28;20431;-76
2023/03/10 01:33:45;;;;;;;6.25;0.98;;;10.30;99.90;;;;;;4994358;28;20394;-77
2023/03/10 01:36:15;;;;;;;4.88;1.08;;;10.40;99.90;;;;;;4992291;28;20096;-77
2023/03/10 01:38:41;;;;;;;5.30;0.90;;;10.50;99.90;;;;;;4988600;28;20018;-77
2023/03/10 01:41:07;;;;;;;5.88;1.20;;;10.60;99.90;;;;;;4988454;28;20030;-76
2023/03/10 01:43:36;;;;;;;3.78;1.05;;;10.70;99.90;;;;;;4985406;28;20057;-77
2023/03/10 01:46:27;;;;;;;3.03;0.70;;;10.70;99.90;;;;;;4984908;28;20116;-76
2023/03/10 01:48:55;;;;;;;1.98;0.80;;;10.70;99.90;;;;;;4986014;28;20045;-76
2023/03/10 01:51:22;;;;;;;2.28;0.70;;;10.80;99.90;;;;;;4986188;28;20030;-77
2023/03/10 01:53:49;;;;;;;3.05;0.88;;;10.90;99.90;;;;;;4987579;28;20415;-76
2023/03/10 01:56:16;;;;;;;2.58;0.65;;;11.00;99.90;;;;;;4987992;28;20041;-76
2023/03/10 01:58:44;;;;;;;3.22;0.70;;;11.00;99.90;;;;;;4983398;28;20057;-76
2023/03/10 02:01:11;;;;;;;2.17;0.60;;;11.00;99.90;;;;;;4986321;28;20049;-76
2023/03/10 02:03:50;;;;;;;1.63;0.40;;;11.10;99.90;;;;;;4984669;28;20050;-77
2023/03/10 02:06:18;;;;;;;1.65;0.65;;;11.10;99.90;;;;;;4986343;28;20030;-77
2023/03/10 02:08:49;;;;;;;7.38;0.70;;;11.10;99.90;;;;;;4986459;28;20022;-77
2023/03/10 02:11:16;;;;;;;3.78;0.80;;;11.10;99.90;;;;;;4985612;28;20039;-79
2023/03/10 02:13:42;;;;;;;2.38;0.55;;;11.10;99.90;;;;;;5009990;28;20030;-76
2023/03/10 02:16:08;;;;;;;3.58;0.70;;;11.00;99.90;;;;;;4990773;28;20038;-76
2023/03/10 02:18:33;;;;;;;2.78;0.82;;;10.90;99.90;;;;;;4983292;28;20039;-76
2023/03/10 02:21:27;;;;;;;2.15;0.70;;;10.80;99.90;;;;;;4985893;28;20060;-78
2023/03/10 02:24:08;;;;;;;4.28;0.70;;;10.70;99.90;;;;;;4987259;28;20052;-77
2023/03/10 02:26:33;;;;;;;3.13;0.65;;;10.50;99.90;;;;;;4988304;28;20122;-77
2023/03/10 02:29:02;;;;;;;2.35;0.60;;;10.50;99.90;;;;;;4990787;28;20113;-77
2023/03/10 02:31:29;;;;;;;1.02;0.50;;;10.40;99.90;;;;;;4990594;28;20097;-77
2023/03/10 02:33:55;;;;;;;1.60;0.45;;;10.40;99.90;;;;;;4992603;28;20026;-77
2023/03/10 02:36:22;;;;;;;1.40;0.80;;;10.30;99.90;;;;;;4987573;28;20026;-77
2023/03/10 02:38:48;;;;;;;1.40;0.50;;;10.20;99.90;;;;;;4992927;28;20052;-77
2023/03/10 02:41:25;;;;;;;3.80;0.40;;;10.20;99.90;;;;;;4991252;28;20022;-77
2023/03/10 02:43:52;;;;;;;3.25;0.50;;;10.10;99.90;;;;;;4989815;28;20041;-76
2023/03/10 02:46:18;;;;;;;1.88;0.40;;;10.10;99.90;;;;;;4990893;28;20039;-77
2023/03/10 02:48:44;;;;;;;2.03;0.38;;;10.00;99.90;;;;;;4990106;28;20144;-76
2023/03/10 02:51:19;;;;;;;1.35;0.40;;;10.00;99.90;;;;;;4995168;28;20585;-77
2023/03/10 02:53:44;;;;;;;1.50;0.38;;;10.00;99.90;;;;;;5006947;28;20026;-77
2023/03/10 02:56:10;;;;;;;1.40;0.30;;;10.00;99.90;;;;;;4985164;28;20027;-76
2023/03/10 02:58:36;;;;;;;1.45;0.30;;;10.00;99.90;;;;;;4987711;28;20022;-76
2023/03/10 03:01:03;;;;;;;0.77;0.30;;;10.00;99.90;;;;;;4991255;28;20494;-77
2023/03/10 03:03:30;;;;;;;0.73;0.25;;;10.00;99.90;;;;;;5006029;28;20470;-75
2023/03/10 03:05:56;;;;;;;1.08;0.25;;;10.00;99.90;;;;;;4992628;28;20143;-76
2023/03/10 03:08:21;;;;;;;1.15;0.20;;;10.00;99.90;;;;;;4992600;28;20113;-76
2023/03/10 03:10:47;;;;;;;0.40;0.20;;;10.00;99.90;;;;;;4992720;28;20046;-76
2023/03/10 03:13:13;;;;;;;0.57;0.20;;;10.00;99.90;;;;;;4991069;28;20033;-76
2023/03/10 03:15:38;;;;;;;0.43;0.30;;;10.00;99.90;;;;;;4992302;28;20033;-76
2023/03/10 03:20:39;;;;;;;0.35;0.20;;;9.90;99.90;;;;;;4964535;28;20127;-76
2023/03/10 03:23:05;;;;;;;0.47;0.20;;;10.00;99.90;;;;;;4969975;28;20054;-77
2023/03/10 03:25:34;;;;;;;0.40;0.13;;;10.00;99.90;;;;;;4967104;28;20030;-74
2023/03/10 03:28:00;;;;;;;0.32;0.20;;;10.00;99.90;;;;;;4969805;28;20038;-75
2023/03/10 03:30:27;;;;;;;0.30;0.10;;;10.00;99.90;;;;;;4963928;28;20035;-74
2023/03/10 03:32:54;;;;;;;0.60;0.10;;;10.00;99.90;;;;;;4950700;28;20019;-75
2023/03/10 03:35:28;;;;;;;0.40;0.20;;;10.00;99.90;;;;;;4950370;28;20015;-75
2023/03/10 03:37:54;;;;;;;0.20;0.20;;;10.00;99.90;;;;;;4953993;28;20035;-77
2023/03/10 03:40:20;;;;;;;0.10;0.10;;;10.10;99.90;;;;;;4946873;29;20036;-77
2023/03/10 03:42:49;;;;;;;0.70;0.30;;;10.10;99.90;;;;;;4949574;28;20483;-76
2023/03/10 03:45:17;;;;;;;0.57;0.20;;;10.10;99.90;;;;;;4948115;28;20070;-77
2023/03/10 03:47:43;;;;;;;0.30;0.20;;;10.10;99.90;;;;;;4947480;28;20059;-77
2023/03/10 03:50:11;;;;;;;0.82;0.28;;;10.20;99.90;;;;;;4948954;28;20409;-74
2023/03/10 03:52:37;;;;;;;1.08;0.25;;;10.20;99.90;;;;;;4950679;28;20554;-75
2023/03/10 03:55:03;;;;;;;2.92;0.63;;;10.20;99.90;;;;;;4947706;28;20039;-76
2023/03/10 03:57:29;;;;;;;3.55;0.52;;;10.20;99.90;;;;;;4945694;28;20059;-75
2023/03/10 03:59:54;;;;;;;1.20;0.50;;;10.20;99.90;;;;;;4945146;28;20058;-75
2023/03/10 04:02:20;;;;;;;3.03;0.55;;;10.20;99.90;;;;;;4948226;28;20492;-75
2023/03/10 04:04:46;;;;;;;1.08;0.50;;;10.20;99.90;;;;;;4949127;28;20027;-75
2023/03/10 04:07:11;;;;;;;1.10;0.47;;;10.30;99.90;;;;;;4950271;28;20027;-74
2023/03/10 04:09:38;;;;;;;3.20;0.40;;;10.20;99.90;;;;;;4947592;28;20036;-75
2023/03/10 04:12:05;;;;;;;3.53;0.68;;;10.30;99.90;;;;;;4947760;28;20054;-75
2023/03/10 04:14:31;;;;;;;2.28;0.40;;;10.30;99.90;;;;;;4947526;28;20067;-75
2023/03/10 04:16:56;;;;;;;0.90;0.40;;;10.30;99.90;;;;;;4963201;28;20074;-75
2023/03/10 04:19:22;;;;;;;2.45;0.43;;;10.20;99.90;;;;;;4949365;28;20039;-74
2023/03/10 04:21:47;;;;;;;2.33;0.30;;;10.20;99.90;;;;;;4949408;28;20035;-77
2023/03/10 04:24:13;;;;;;;0.93;0.40;;;10.20;99.90;;;;;;4945537;28;20423;-77
2023/03/10 04:26:39;;;;;;;2.05;0.45;;;10.10;99.90;;;;;;4949154;28;20027;-77
2023/03/10 04:29:04;;;;;;;1.85;0.40;;;10.10;99.90;;;;;;4948713;28;20472;-77
2023/03/10 04:31:30;;;;;;;2.10;0.70;;;10.00;99.90;;;;;;4950000;28;20107;-76
2023/03/10 04:33:56;;;;;;;2.08;0.40;;;10.00;99.90;;;;;;4946280;28;20111;-77
2023/03/10 04:36:21;;;;;;;1.73;0.45;;;9.90;99.90;;;;;;4948463;28;20039;-77
2023/03/10 04:38:47;;;;;;;1.85;0.50;;;9.90;99.90;;;;;;4948336;28;20062;-77
2023/03/10 04:41:13;;;;;;;0.85;0.40;;;9.90;99.90;;;;;;4949540;28;20035;-76
2023/03/10 04:43:39;;;;;;;1.92;0.80;;;9.90;99.90;;;;;;4943399;28;20043;-77
2023/03/10 04:46:05;;;;;;;1.58;0.50;;;9.90;99.90;;;;;;4941383;28;20472;-77
2023/03/10 04:48:31;;;;;;;2.25;0.60;;;9.90;99.90;;;;;;4943512;28;20083;-76
2023/03/10 04:50:59;;;;;;;3.95;0.50;;;9.90;99.90;;;;;;4950068;28;20024;-77
2023/03/10 04:53:25;;;;;;;2.17;0.75;;;9.90;99.90;;;;;;4944818;28;20407;-77
2023/03/10 04:55:51;;;;;;;1.83;0.60;;;9.90;99.90;;;;;;4945756;28;20027;-76
2023/03/10 04:58:18;;;;;;;1.33;0.50;;;9.90;99.90;;;;;;4948133;28;20023;-77
2023/03/10 05:00:44;;;;;;;3.75;0.75;;;9.90;99.90;;;;;;4946222;28;20027;-77
2023/03/10 05:03:09;;;;;;;2.15;0.55;;;9.90;99.90;;;;;;4947084;28;20046;-77
2023/03/10 05:05:36;;;;;;;2.30;0.70;;;9.90;99.90;;;;;;4950471;28;20448;-77
2023/03/10 05:08:01;;;;;;;1.08;0.30;;;9.90;99.90;;;;;;4949207;28;20622;-76
2023/03/10 05:10:27;;;;;;;2.97;0.60;;;9.90;99.90;;;;;;4947506;28;20042;-77
2023/03/10 05:12:53;;;;;;;3.78;0.50;;;9.90;99.90;;;;;;4949366;28;20035;-77
2023/03/10 05:15:18;;;;;;;1.85;0.60;;;10.00;99.90;;;;;;4952477;28;20562;-74
2023/03/10 05:17:44;;;;;;;1.80;0.40;;;10.00;99.90;;;;;;4949405;28;20427;-76
2023/03/10 05:20:10;;;;;;;3.50;0.55;;;10.00;99.90;;;;;;4952003;28;20059;-76
2023/03/10 05:22:37;;;;;;;1.38;0.50;;;10.00;99.90;;;;;;4950129;28;20554;-75
2023/03/10 05:25:04;;;;;;;3.10;1.42;;;10.10;99.90;;;;;;4953442;28;20035;-77
2023/03/10 05:27:34;;;;;;;1.17;0.40;;;10.00;99.90;;;;;;4949103;28;20503;-75
2023/03/10 05:30:01;;;;;;;2.08;0.30;;;10.10;99.90;;;;;;4951811;28;20029;-74
2023/03/10 05:32:27;;;;;;;1.55;0.82;;;10.00;99.90;;;;;;4951130;28;20015;-74
2023/03/10 05:34:53;;;;;;;2.33;0.60;;;10.00;99.90;;;;;;4950787;28;20487;-75
2023/03/10 05:37:19;;;;;;;2.45;0.60;;;10.00;99.90;;;;;;4948240;28;20039;-74
2023/03/10 05:39:45;;;;;;;3.95;0.75;;;10.10;99.90;;;;;;4949739;28;20079;-77
2023/03/10 05:42:11;;;;;;;0.88;0.50;;;10.00;99.90;;;;;;4950957;28;20023;-75
2023/03/10 05:44:37;;;;;;;3.45;0.50;;;10.00;99.90;;;;;;4948625;28;20023;-75
2023/03/10 05:47:04;;;;;;;2.28;0.50;;;10.00;99.90;;;;;;4948956;28;20463;-77
2023/03/10 05:49:30;;;;;;;3.83;0.65;;;10.00;99.90;;;;;;4949141;28;20027;-77
2023/03/10 05:51:56;;;;;;;2.58;0.52;;;10.00;99.90;;;;;;4950574;28;20030;-77
2023/03/10 05:54:22;;;;;;;2.50;0.63;;;10.00;99.90;;;;;;4951747;28;20035;-77
2023/03/10 05:56:48;;;;;;;0.85;0.35;;;10.00;99.90;;;;;;4954212;28;20114;-77
2023/03/10 05:59:13;;;;;;;1.15;0.68;;;9.90;99.90;;;;;;4948215;28;20147;-76
2023/03/10 06:01:39;;;;;;;2.97;1.00;;;9.90;99.90;;;;;;4951756;28;20038;-77
2023/03/10 06:04:05;;;;;;;3.30;0.73;;;9.80;99.90;;;;;;4948146;28;20559;-76
2023/03/10 06:06:31;;;;;;;3.78;0.70;;;9.80;99.90;;;;;;4946727;28;20050;-77
2023/03/10 06:08:56;;;;;;;2.60;1.00;;;9.70;99.90;;;;;;4951447;28;20117;-77
2023/03/10 06:11:22;;;;;;;1.90;0.50;;;9.70;99.90;;;;;;4952335;28;20151;-75
2023/03/10 06:13:48;;;;;;;4.00;1.02;;;9.70;99.90;;;;;;4951537;28;20035;-76
2023/03/10 06:16:14;;;;;;;2.75;0.95;;;9.70;99.90;;;;;;4950030;28;20392;-76
2023/03/10 06:18:39;;;;;;;2.63;0.63;;;9.70;99.90;;;;;;4948722;28;20039;-75
2023/03/10 06:21:07;;;;;;;2.00;0.40;;;9.70;99.90;;;;;;4945525;28;20035;-76
2023/03/10 06:23:34;;;;;;;4.70;0.63;;;9.70;99.90;;;;;;4947745;28;20400;-77
2023/03/10 06:26:05;;;;;;;0.40;0.30;;;9.70;99.90;;;;;;4954289;28;20039;-76
2023/03/10 06:28:34;;;;;;;3.00;0.65;;;9.70;99.90;;;;;;4966726;28;20042;-76
2023/03/10 06:31:01;;;;;;;3.25;0.98;;;9.70;99.90;;;;;;4948858;28;20023;-76
2023/03/10 06:33:27;;;;;;;2.03;0.85;;;9.70;99.90;;;;;;4955649;28;20438;-76
2023/03/10 06:35:53;;;;;;;3.08;0.60;;;9.70;99.90;;;;;;4948514;28;20028;-75
2023/03/10 06:38:19;;;;;;;1.55;0.95;;;9.70;99.90;;;;;;4953693;28;20034;-77
2023/03/10 06:40:45;;;;;;;2.58;0.50;;;9.70;99.90;;;;;;4950089;28;20039;-76
2023/03/10 06:43:11;;;;;;;1.35;0.60;;;9.70;99.90;;;;;;4952963;28;20087;-76
2023/03/10 06:45:39;;;;;;;1.98;0.80;;;9.70;99.90;;;;;;4962989;28;20038;-76
2023/03/10 06:48:05;;;;;;;3.65;0.45;;;9.80;99.90;;;;;;4946693;28;20146;-76
2023/03/10 06:50:30;;;;;;;1.55;0.30;;;9.80;99.90;;;;;;4949889;28;20039;-75
2023/03/10 06:52:56;;;;;;;1.75;0.30;;;9.90;99.90;;;;;;4952074;28;20038;-75
2023/03/10 06:55:21;;;;;;;0.75;0.52;;;9.90;99.90;;;;;;4951077;28;20031;-76
2023/03/10 06:57:47;;;;;;;2.33;0.43;;;9.90;99.90;;;;;;4947582;28;20042;-75
2023/03/10 07:00:14;;;;;;;1.27;0.50;;;10.00;99.90;;;;;;4949213;28;20028;-75
2023/03/10 07:02:41;;;;;;;0.95;0.47;;;10.10;99.90;;;;;;4950689;28;20515;-75
2023/03/10 07:05:10;;;;;;;1.05;0.50;;;10.10;99.90;;;;;;4948985;28;20062;-75
2023/03/10 07:07:35;;;;;;;2.28;0.70;;;10.20;99.90;;;;;;4968000;28;20090;-75
2023/03/10 07:10:01;;;;;;;2.20;0.50;;;10.20;99.90;;;;;;4945163;28;20082;-75
2023/03/10 07:12:27;;;;;;;1.02;0.30;;;10.20;99.90;;;;;;4949454;28;20408;-75
2023/03/10 07:14:52;;;;;;;1.73;0.50;;;10.30;99.90;;;;;;4963819;28;20023;-75
2023/03/10 07:17:18;;;;;;;1.85;0.30;;;10.30;99.90;;;;;;4951214;28;20027;-75
2023/03/10 07:19:44;;;;;;;1.95;0.40;;;10.30;99.90;;;;;;4950318;28;20031;-75
2023/03/10 07:22:09;;;;;;;0.77;0.40;;;10.40;99.90;;;;;;4948004;28;20027;-75
2023/03/10 07:24:35;;;;;;;1.67;0.70;;;10.40;99.90;;;;;;4961093;28;20392;-74
2023/03/10 07:27:01;;;;;;;5.13;0.50;;;10.40;99.90;;;;;;4950319;28;20039;-75
2023/03/10 07:29:27;;;;;;;1.77;0.70;;;10.50;99.90;;;;;;4950838;28;20027;-75
2023/03/10 07:31:53;;;;;;;1.20;0.50;;;10.50;99.90;;;;;;4949087;28;20028;-75
2023/03/10 07:34:19;;;;;;;2.75;0.90;;;10.50;99.90;;;;;;4945262;28;20543;-75
2023/03/10 07:36:45;;;;;;;1.85;0.47;;;10.60;99.90;;;;;;4950627;28;20035;-75
2023/03/10 07:39:11;;;;;;;2.28;0.40;;;10.60;99.90;;;;;;4947818;28;20027;-75
2023/03/10 07:41:36;;;;;;;1.30;0.32;;;10.60;99.90;;;;;;4952422;28;20059;-76
2023/03/10 07:44:02;;;;;;;2.42;0.57;;;10.70;99.90;;;;;;4949146;28;20114;-75
2023/03/10 07:46:27;;;;;;;1.42;0.50;;;10.70;99.90;;;;;;4950889;28;20039;-76
2023/03/10 07:48:54;;;;;;;2.83;0.43;;;10.70;99.90;;;;;;4948823;28;20019;-75
2023/03/10 07:51:21;;;;;;;1.52;0.40;;;10.80;99.90;;;;;;4951252;28;20029;-76
2023/03/10 07:53:46;;;;;;;4.97;0.50;;;10.80;99.90;;;;;;4950291;28;20035;-76
2023/03/10 07:56:13;;;;;;;1.67;0.50;;;10.80;99.90;;;;;;4950493;28;20027;-76
2023/03/10 07:58:39;;;;;;;1.92;0.60;;;10.90;99.90;;;;;;4951404;28;20045;-76
2023/03/10 08:01:06;;;;;;;1.92;0.40;;;10.90;99.90;;;;;;4951895;28;20361;-76
2023/03/10 08:03:35;;;;;;;3.55;0.40;;;10.90;99.90;;;;;;4954393;28;20118;-76
2023/03/10 08:06:04;;;;;;;1.15;0.40;;;10.90;99.90;;;;;;4950091;28;20503;-75
2023/03/10 08:08:29;;;;;;;1.30;0.22;;;10.90;99.90;;;;;;4953081;28;20026;-76
2023/03/10 08:11:00;;;;;;;0.47;0.20;;;10.90;99.90;;;;;;4950706;28;20027;-75
2023/03/10 08:13:26;;;;;;;2.03;0.20;;;10.90;99.90;;;;;;4953067;28;20058;-75
2023/03/10 08:15:52;;;;;;;1.10;0.40;;;10.90;99.90;;;;;;4950512;28;20103;-76
2023/03/10 08:18:18;;;;;;;0.88;0.10;;;10.90;99.90;;;;;;4951829;28;20030;-76
2023/03/10 08:20:43;;;;;;;0.80;0.25;;;10.90;99.90;;;;;;4952655;28;20027;-75
2023/03/10 08:23:09;;;;;;;0.70;0.20;;;10.90;99.90;;;;;;4948811;28;20031;-75
2023/03/10 08:25:36;;;;;;;0.50;0.20;;;10.90;99.90;;;;;;4968185;28;20039;-75
2023/03/10 08:28:02;;;;;;;1.45;0.47;;;10.80;99.90;;;;;;4954214;28;20500;-76
2023/03/10 08:30:27;;;;;;;0.60;0.20;;;10.80;99.90;;;;;;4953444;28;20042;-75
2023/03/10 08:32:53;;;;;;;0.30;0.30;;;10.80;99.90;;;;;;4949699;28;20024;-75
2023/03/10 08:35:19;;;;;;;0.60;0.20;;;10.80;99.90;;;;;;4952688;28;20027;-75
2023/03/10 08:37:45;;;;;;;0.30;0.20;;;10.80;99.90;;;;;;4955182;28;20039;-75
2023/03/10 08:40:13;;;;;;;1.15;0.20;;;10.90;99.90;;;;;;4950716;28;20460;-75
2023/03/10 08:42:38;;;;;;;2.72;0.32;;;11.00;99.90;;;;;;4954128;28;20027;-75
2023/03/10 08:45:04;;;;;;;1.60;0.30;;;11.10;99.90;;;;;;4947354;28;20436;-76
2023/03/10 08:47:30;;;;;;;0.70;0.20;;;11.10;99.90;;;;;;4955424;28;20050;-76
2023/03/10 08:49:56;;;;;;;0.40;0.20;;;11.20;99.90;;;;;;4954442;28;20350;-75
2023/03/10 08:52:23;;;;;;;2.17;0.20;;;11.30;99.90;;;;;;4951310;28;20404;-75
2023/03/10 08:54:48;;;;;;;1.90;0.20;;;11.30;99.90;;;;;;4953566;28;20023;-75
2023/03/10 08:57:14;;;;;;;1.10;0.20;;;11.30;99.90;;;;;;4953551;28;20401;-76
2023/03/10 08:59:39;;;;;;;0.50;0.30;;;11.40;99.90;;;;;;4952844;28;20597;-75
2023/03/10 09:02:05;;;;;;;1.88;0.35;;;11.40;99.90;;;;;;4950558;28;20035;-75
2023/03/10 09:04:31;;;;;;;1.05;0.35;;;11.40;99.90;;;;;;4954684;28;20503;-75
2023/03/10 09:06:57;;;;;;;1.67;0.20;;;11.50;99.90;;;;;;4949715;28;20071;-75
2023/03/10 09:09:22;;;;;;;0.82;0.30;;;11.40;99.90;;;;;;4947714;28;20114;-75
2023/03/10 09:11:48;;;;;;;0.55;0.30;;;11.50;99.90;;;;;;4953847;28;20028;-75
2023/03/10 09:14:16;;;;;;;2.85;0.25;;;11.50;99.90;;;;;;4953192;28;20055;-76
2023/03/10 09:16:42;;;;;;;1.48;0.35;;;11.50;99.90;;;;;;4953081;28;20106;-75
2023/03/10 09:19:08;;;;;;;1.48;0.30;;;11.50;99.90;;;;;;4969438;23;20118;-77
2023/03/10 09:21:33;;;;;;;3.60;0.60;;;11.60;99.90;;;;;;4968398;28;20034;-77
2023/03/10 09:24:00;;;;;;;1.92;0.30;;;11.70;99.90;;;;;;4965625;28;20019;-77
2023/03/10 09:26:26;;;;;;;0.82;0.35;;;11.80;99.90;;;;;;4972619;28;20027;-77
2023/03/10 09:28:52;;;;;;;2.58;0.50;;;11.90;99.90;;;;;;4970554;28;20062;-78
2023/03/10 09:31:21;;;;;;;4.38;0.68;;;11.90;99.90;;;;;;4972334;28;20049;-78
2023/03/10 09:33:47;;;;;;;2.75;0.63;;;12.00;99.90;;;;;;4983108;28;20027;-78
2023/03/10 09:36:13;;;;;;;5.20;0.60;;;12.10;99.90;;;;;;4977549;28;20034;-78
2023/03/10 09:38:40;;;;;;;4.22;0.70;;;12.10;99.90;;;;;;4969858;28;20094;-78
2023/03/10 09:41:21;;;;;;;1.52;0.50;;;12.20;99.90;;;;;;4971883;28;20034;-78
2023/03/10 09:44:07;;;;;;;1.17;0.40;;;12.20;99.90;;;;;;4973107;28;20027;-78
2023/03/10 09:46:50;;;;;;;3.70;0.30;;;12.20;99.90;;;;;;4967140;28;20035;-77
2023/03/10 09:49:32;;;;;;;1.27;0.55;;;12.10;99.90;;;;;;4966198;28;20034;-78
2023/03/10 09:51:58;;;;;;;1.77;0.50;;;12.10;99.90;;;;;;4972311;28;20102;-78
2023/03/10 09:54:39;;;;;;;2.03;0.50;;;12.00;99.90;;;;;;4968103;28;20471;-78
2023/03/10 09:57:14;;;;;;;2.80;0.73;;;12.10;99.90;;;;;;4972139;28;20412;-78
2023/03/10 09:59:43;;;;;;;5.30;0.60;;;12.00;99.90;;;;;;4969245;28;20058;-78
2023/03/10 10:02:24;;;;;;;2.38;0.40;;;12.10;99.90;;;;;;4966561;28;20472;-78
2023/03/10 10:04:55;;;;;;;2.97;0.32;;;12.00;99.90;;;;;;4972582;28;20158;-77
2023/03/10 10:07:26;;;;;;;2.20;0.70;;;11.90;99.90;;;;;;4966908;28;20042;-78
2023/03/10 10:10:03;;;;;;;1.05;0.30;;;11.90;99.90;;;;;;4967906;28;20030;-77
2023/03/10 10:12:28;;;;;;;2.90;0.40;;;12.00;99.90;;;;;;4967408;28;20019;-78
2023/03/10 10:14:58;;;;;;;2.60;0.65;;;11.90;99.90;;;;;;4969152;28;20074;-78
2023/03/10 10:17:29;;;;;;;2.58;0.43;;;11.90;99.90;;;;;;4970059;28;20039;-76
2023/03/10 10:19:56;;;;;;;1.02;0.30;;;11.90;99.90;;;;;;4971105;28;20034;-78
2023/03/10 10:22:30;;;;;;;2.45;0.57;;;11.90;99.90;;;;;;4966487;28;20057;-77
2023/03/10 10:25:08;;;;;;;2.70;0.40;;;11.90;99.90;;;;;;4970478;28;21046;-77
2023/03/10 10:27:38;;;;;;;0.50;0.28;;;11.90;99.90;;;;;;4962158;28;20350;-77
2023/03/10 10:30:35;;;;;;;2.33;0.45;;;12.00;99.90;;;;;;4964216;28;20023;-77
2023/03/10 10:33:12;;;;;;;3.95;0.65;;;12.20;99.90;;;;;;4970593;28;20063;-77
2023/03/10 10:35:59;;;;;;;1.95;0.50;;;12.30;99.90;;;;;;4982163;28;20027;-77
2023/03/10 10:38:30;;;;;;;0.85;0.38;;;12.40;99.90;;;;;;4971149;28;20368;-77
2023/03/10 10:41:05;;;;;;;1.33;0.35;;;12.50;99.90;;;;;;4963914;28;20038;-77
2023/03/10 10:43:42;;;;;;;0.65;0.30;;;12.60;99.90;;;;;;4971155;28;20086;-77
2023/03/10 10:46:09;;;;;;;1.95;0.32;;;12.50;99.90;;;;;;4972632;28;20042;-78
2023/03/10 10:48:40;;;;;;;6.03;0.32;;;12.40;99.90;;;;;;4971793;28;20030;-78
2023/03/10 10:51:18;;;;;;;1.98;0.40;;;12.40;99.90;;;;;;4965465;28;20034;-79
2023/03/10 10:53:44;;;;;;;0.45;0.25;;;12.30;99.90;;;;;;4974849;28;20030;-78
2023/03/10 10:56:17;;;;;;;1.98;0.70;;;12.30;99.90;;;;;;4969235;28;20073;-79
2023/03/10 10:58:59;;;;;;;2.65;0.50;;;12.30;99.90;;;;;;4971325;28;20010;-78
2023/03/10 11:01:24;;;;;;;2.33;0.60;;;12.20;99.90;;;;;;4966521;28;20510;-78
2023/03/10 11:04:06;;;;;;;0.77;0.30;;;12.20;99.90;;;;;;4971459;28;20011;-78
2023/03/10 11:06:36;;;;;;;0.98;0.40;;;12.20;99.90;;;;;;4984504;28;20369;-78
2023/03/10 11:09:08;;;;;;;2.35;0.40;;;12.30;99.90;;;;;;4966840;28;20090;-78
2023/03/10 11:11:58;;;;;;;0.65;0.20;;;12.30;99.90;;;;;;4967010;28;20700;-79
2023/03/10 11:14:48;;;;;;;1.48;0.40;;;12.40;99.90;;;;;;4967600;28;20033;-77
2023/03/10 11:17:26;;;;;;;2.25;0.30;;;12.60;99.90;;;;;;4968754;28;20038;-77
2023/03/10 11:20:05;;;;;;;0.80;0.30;;;12.70;99.90;;;;;;4979145;28;20111;-77
2023/03/10 11:22:44;;;;;;;0.50;0.30;;;12.70;99.90;;;;;;4962806;28;20991;-76
2023/03/10 11:25:22;;;;;;;1.02;0.47;;;12.70;99.90;;;;;;4964053;28;20480;-75
2023/03/10 11:28:00;;;;;;;0.93;0.32;;;12.80;99.90;;;;;;4962356;28;20054;-76
2023/03/10 11:30:34;;;;;;;1.38;0.57;;;12.90;99.90;;;;;;4962468;28;20026;-76
2023/03/10 11:33:05;;;;;;;1.70;0.85;;;13.00;99.90;;;;;;4966727;28;20403;-77
2023/03/10 11:35:44;;;;;;;3.20;0.70;;;13.00;99.90;;;;;;4969804;28;20023;-77
2023/03/10 11:38:30;;;;;;;0.88;0.40;;;13.00;99.90;;;;;;4961778;28;20037;-76
2023/03/10 11:41:03;;;;;;;2.80;0.40;;;12.90;99.90;;;;;;4969561;28;20022;-77
2023/03/10 11:43:50;;;;;;;2.42;0.40;;;12.90;99.90;;;;;;4968421;28;20074;-77
2023/03/10 11:46:24;;;;;;;1.48;0.30;;;12.80;99.90;;;;;;4966163;28;20333;-76
2023/03/10 11:48:52;;;;;;;3.15;0.77;;;12.70;99.90;;;;;;4961814;28;20041;-76
2023/03/10 11:51:41;;;;;;;1.00;0.30;;;12.60;99.90;;;;;;4960133;28;20020;-76
2023/03/10 11:54:25;;;;;;;1.63;0.50;;;12.60;99.90;;;;;;4959437;28;20041;-76
2023/03/10 11:56:51;;;;;;;1.38;0.40;;;12.50;99.90;;;;;;4962002;28;20026;-75
2023/03/10 11:59:26;;;;;;;0.65;0.20;;;12.40;99.90;;;;;;4962980;28;20049;-76
2023/03/10 12:02:02;;;;;;;3.92;0.55;;;12.20;99.90;;;;;;4959098;28;20034;-76
2023/03/10 12:04:55;;;;;;;4.32;0.40;;;12.20;99.90;;;;;;4966980;28;20499;-78
2023/03/10 12:07:32;;;;;;;0.63;0.40;;;12.20;99.90;;;;;;4962012;28;20101;-77
2023/03/10 12:10:01;;;;;;;0.50;0.30;;;12.10;99.90;;;;;;4959050;28;20033;-76
2023/03/10 12:12:58;;;;;;;0.70;0.30;;;12.10;99.90;;;;;;4964981;28;20887;-78
2023/03/10 12:15:29;;;;;;;1.73;0.65;;;12.10;99.90;;;;;;4967427;28;20042;-78
2023/03/10 12:17:55;;;;;;;3.92;0.40;;;12.10;99.90;;;;;;4965750;28;20026;-76
2023/03/10 12:20:21;;;;;;;1.67;0.50;;;12.10;99.90;;;;;;4961532;28;20038;-76
2023/03/10 12:22:58;;;;;;;1.30;0.30;;;12.10;99.90;;;;;;4968324;28;20028;-77
2023/03/10 12:25:27;;;;;;;1.80;0.60;;;12.10;99.90;;;;;;4971049;28;20031;-77
2023/03/10 12:28:14;;;;;;;0.32;0.13;;;12.20;99.90;;;;;;4972087;28;20057;-76
2023/03/10 12:31:02;;;;;;;0.73;0.35;;;12.20;99.90;;;;;;4960923;28;20031;-76
2023/03/10 12:33:30;;;;;;;2.67;0.20;;;12.30;99.90;;;;;;4967720;28;20023;-77
2023/03/10 12:36:01;;;;;;;0.93;0.25;;;12.40;99.90;;;;;;4963509;28;20038;-77
2023/03/10 12:38:36;;;;;;;0.57;0.35;;;12.50;99.90;;;;;;4963122;28;20058;-76
2023/03/10 12:41:02;;;;;;;1.50;0.20;;;12.50;99.90;;;;;;4965442;28;20514;-76
2023/03/10 12:43:51;;;;;;;0.57;0.40;;;12.50;99.90;;;;;;4969944;28;20058;-76
2023/03/10 12:46:58;;;;;;;0.60;0.40;;;12.40;99.90;;;;;;4964123;28;20716;-76
2023/03/10 12:49:47;;;;;;;1.50;0.32;;;12.40;99.90;;;;;;4965551;28;20074;-78
2023/03/10 12:52:29;;;;;;;0.88;0.25;;;12.30;99.90;;;;;;4968141;28;20143;-77
2023/03/10 12:55:16;;;;;;;1.50;0.40;;;12.30;99.90;;;;;;4973973;28;20026;-77
2023/03/10 12:57:52;;;;;;;0.50;0.30;;;12.30;99.90;;;;;;4975699;28;20022;-77
2023/03/10 13:00:30;;;;;;;0.30;0.20;;;12.30;99.90;;;;;;4978664;28;20033;-76